sensor_id;sensor_type;location;lat;lon;timestamp;P1;durP1;ratioP1;P2;durP2;ratioP2
22606;SDS011;11470;20.968;105.834;2022-12-18T00:03:17;13.98;;;5.93;;
22606;SDS011;11470;20.968;105.834;2022-12-18T00:08:23;18.53;;;6.97;;
22606;SDS011;11470;20.968;105.834;2022-12-18T00:13:28;19.30;;;7.40;;
22606;SDS011;11470;20.968;105.834;2022-12-18T00:18:35;21.60;;;9.10;;
22606;SDS011;11470;20.968;105.834;2022-12-18T00:23:41;18.20;;;7.95;;
22606;SDS011;11470;20.968;105.834;2022-12-18T00:33:56;12.30;;;5.13;;
22606;SDS011;11470;20.968;105.834;2022-12-18T00:39:03;24.25;;;10.38;;
22606;SDS011;11470;20.968;105.834;2022-12-18T00:44:10;21.02;;;8.82;;
22606;SDS011;11470;20.968;105.834;2022-12-18T00:49:16;24.67;;;9.48;;
22606;SDS011;11470;20.968;105.834;2022-12-18T00:54:24;17.20;;;6.65;;
22606;SDS011;11470;20.968;105.834;2022-12-18T00:59:29;11.05;;;5.75;;
22606;SDS011;11470;20.968;105.834;2022-12-18T01:04:36;13.57;;;5.60;;
22606;SDS011;11470;20.968;105.834;2022-12-18T01:09:41;18.10;;;7.88;;
22606;SDS011;11470;20.968;105.834;2022-12-18T01:14:47;23.90;;;6.88;;
22606;SDS011;11470;20.968;105.834;2022-12-18T01:19:53;13.90;;;7.73;;
22606;SDS011;11470;20.968;105.834;2022-12-18T01:24:59;18.47;;;6.47;;
22606;SDS011;11470;20.968;105.834;2022-12-18T01:30:05;15.95;;;7.43;;
22606;SDS011;11470;20.968;105.834;2022-12-18T01:35:10;22.43;;;7.93;;
22606;SDS011;11470;20.968;105.834;2022-12-18T01:40:16;13.95;;;4.68;;
22606;SDS011;11470;20.968;105.834;2022-12-18T01:45:24;16.65;;;7.22;;
22606;SDS011;11470;20.968;105.834;2022-12-18T01:55:50;13.52;;;7.57;;
22606;SDS011;11470;20.968;105.834;2022-12-18T02:00:56;20.08;;;7.57;;
22606;SDS011;11470;20.968;105.834;2022-12-18T02:06:08;28.83;;;10.07;;
22606;SDS011;11470;20.968;105.834;2022-12-18T02:16:50;21.70;;;8.73;;
22606;SDS011;11470;20.968;105.834;2022-12-18T02:22:06;13.40;;;6.60;;
22606;SDS011;11470;20.968;105.834;2022-12-18T02:27:15;26.88;;;8.48;;
22606;SDS011;11470;20.968;105.834;2022-12-18T02:32:22;24.77;;;9.25;;
22606;SDS011;11470;20.968;105.834;2022-12-18T02:37:30;22.73;;;9.60;;
22606;SDS011;11470;20.968;105.834;2022-12-18T02:42:39;14.18;;;6.82;;
22606;SDS011;11470;20.968;105.834;2022-12-18T02:47:49;24.42;;;9.88;;
22606;SDS011;11470;20.968;105.834;2022-12-18T03:08:32;19.30;;;7.57;;
22606;SDS011;11470;20.968;105.834;2022-12-18T03:13:40;15.80;;;8.52;;
22606;SDS011;11470;20.968;105.834;2022-12-18T03:18:51;17.23;;;5.93;;
22606;SDS011;11470;20.968;105.834;2022-12-18T03:23:58;23.00;;;8.55;;
22606;SDS011;11470;20.968;105.834;2022-12-18T03:34:46;16.58;;;7.07;;
22606;SDS011;11470;20.968;105.834;2022-12-18T03:39:56;13.50;;;5.90;;
22606;SDS011;11470;20.968;105.834;2022-12-18T03:45:09;15.77;;;7.25;;
22606;SDS011;11470;20.968;105.834;2022-12-18T03:50:22;19.48;;;8.23;;
22606;SDS011;11470;20.968;105.834;2022-12-18T03:55:32;21.70;;;8.70;;
22606;SDS011;11470;20.968;105.834;2022-12-18T04:00:41;16.17;;;6.85;;
22606;SDS011;11470;20.968;105.834;2022-12-18T04:11:35;13.20;;;5.80;;
22606;SDS011;11470;20.968;105.834;2022-12-18T04:16:41;16.40;;;7.57;;
22606;SDS011;11470;20.968;105.834;2022-12-18T04:21:53;23.50;;;9.30;;
22606;SDS011;11470;20.968;105.834;2022-12-18T04:26:59;22.65;;;8.93;;
22606;SDS011;11470;20.968;105.834;2022-12-18T04:32:08;10.15;;;5.97;;
22606;SDS011;11470;20.968;105.834;2022-12-18T04:37:18;15.60;;;7.13;;
22606;SDS011;11470;20.968;105.834;2022-12-18T04:42:25;32.88;;;15.73;;
22606;SDS011;11470;20.968;105.834;2022-12-18T04:47:30;21.00;;;9.37;;
22606;SDS011;11470;20.968;105.834;2022-12-18T04:52:37;15.32;;;7.30;;
22606;SDS011;11470;20.968;105.834;2022-12-18T04:57:43;20.92;;;9.23;;
22606;SDS011;11470;20.968;105.834;2022-12-18T05:02:49;24.17;;;12.13;;
22606;SDS011;11470;20.968;105.834;2022-12-18T05:07:55;29.60;;;12.93;;
22606;SDS011;11470;20.968;105.834;2022-12-18T05:13:01;20.00;;;8.60;;
22606;SDS011;11470;20.968;105.834;2022-12-18T05:18:07;25.08;;;9.70;;
22606;SDS011;11470;20.968;105.834;2022-12-18T05:28:19;27.42;;;13.35;;
22606;SDS011;11470;20.968;105.834;2022-12-18T05:33:25;14.98;;;7.70;;
22606;SDS011;11470;20.968;105.834;2022-12-18T05:38:31;18.83;;;9.45;;
22606;SDS011;11470;20.968;105.834;2022-12-18T05:43:38;17.38;;;7.18;;
22606;SDS011;11470;20.968;105.834;2022-12-18T05:48:55;31.90;;;13.73;;
22606;SDS011;11470;20.968;105.834;2022-12-18T05:59:07;26.45;;;12.40;;
22606;SDS011;11470;20.968;105.834;2022-12-18T06:04:12;23.90;;;12.43;;
22606;SDS011;11470;20.968;105.834;2022-12-18T06:09:19;13.90;;;7.97;;
22606;SDS011;11470;20.968;105.834;2022-12-18T06:14:24;15.93;;;6.13;;
22606;SDS011;11470;20.968;105.834;2022-12-18T06:19:30;18.17;;;7.83;;
22606;SDS011;11470;20.968;105.834;2022-12-18T06:24:35;21.38;;;9.80;;
22606;SDS011;11470;20.968;105.834;2022-12-18T06:29:42;22.50;;;7.55;;
22606;SDS011;11470;20.968;105.834;2022-12-18T06:34:48;28.13;;;11.98;;
22606;SDS011;11470;20.968;105.834;2022-12-18T06:39:54;26.35;;;11.77;;
22606;SDS011;11470;20.968;105.834;2022-12-18T06:45:00;18.98;;;7.82;;
22606;SDS011;11470;20.968;105.834;2022-12-18T06:50:06;15.20;;;7.23;;
22606;SDS011;11470;20.968;105.834;2022-12-18T06:55:12;20.58;;;8.35;;
22606;SDS011;11470;20.968;105.834;2022-12-18T07:00:18;26.70;;;10.65;;
22606;SDS011;11470;20.968;105.834;2022-12-18T07:05:23;22.07;;;10.03;;
22606;SDS011;11470;20.968;105.834;2022-12-18T07:15:38;21.23;;;9.63;;
22606;SDS011;11470;20.968;105.834;2022-12-18T07:20:44;15.13;;;8.30;;
22606;SDS011;11470;20.968;105.834;2022-12-18T07:25:50;28.48;;;12.75;;
22606;SDS011;11470;20.968;105.834;2022-12-18T07:30:56;27.50;;;12.25;;
22606;SDS011;11470;20.968;105.834;2022-12-18T07:36:06;21.02;;;10.65;;
22606;SDS011;11470;20.968;105.834;2022-12-18T07:41:12;22.90;;;12.43;;
22606;SDS011;11470;20.968;105.834;2022-12-18T07:51:25;27.58;;;12.30;;
22606;SDS011;11470;20.968;105.834;2022-12-18T07:56:31;26.27;;;12.23;;
22606;SDS011;11470;20.968;105.834;2022-12-18T08:01:37;24.60;;;12.70;;
22606;SDS011;11470;20.968;105.834;2022-12-18T08:06:44;17.58;;;10.10;;
22606;SDS011;11470;20.968;105.834;2022-12-18T08:11:50;25.60;;;12.18;;
22606;SDS011;11470;20.968;105.834;2022-12-18T08:16:55;19.57;;;10.37;;
22606;SDS011;11470;20.968;105.834;2022-12-18T08:27:07;30.48;;;10.23;;
22606;SDS011;11470;20.968;105.834;2022-12-18T08:32:31;28.30;;;11.15;;
22606;SDS011;11470;20.968;105.834;2022-12-18T08:37:37;24.42;;;10.43;;
22606;SDS011;11470;20.968;105.834;2022-12-18T08:42:44;25.00;;;10.05;;
22606;SDS011;11470;20.968;105.834;2022-12-18T08:48:08;24.75;;;12.13;;
22606;SDS011;11470;20.968;105.834;2022-12-18T08:53:20;25.33;;;13.40;;
22606;SDS011;11470;20.968;105.834;2022-12-18T08:58:26;23.30;;;11.67;;
22606;SDS011;11470;20.968;105.834;2022-12-18T09:03:32;23.48;;;12.55;;
22606;SDS011;11470;20.968;105.834;2022-12-18T09:08:39;26.67;;;12.50;;
22606;SDS011;11470;20.968;105.834;2022-12-18T09:13:45;36.00;;;16.40;;
22606;SDS011;11470;20.968;105.834;2022-12-18T09:18:51;28.08;;;14.27;;
22606;SDS011;11470;20.968;105.834;2022-12-18T09:24:03;27.45;;;12.65;;
22606;SDS011;11470;20.968;105.834;2022-12-18T09:29:10;32.55;;;16.65;;
22606;SDS011;11470;20.968;105.834;2022-12-18T09:34:20;36.30;;;16.33;;
22606;SDS011;11470;20.968;105.834;2022-12-18T09:39:26;39.45;;;15.65;;
22606;SDS011;11470;20.968;105.834;2022-12-18T09:44:41;34.97;;;15.40;;
22606;SDS011;11470;20.968;105.834;2022-12-18T09:49:52;37.97;;;18.38;;
22606;SDS011;11470;20.968;105.834;2022-12-18T10:00:21;33.25;;;17.20;;
22606;SDS011;11470;20.968;105.834;2022-12-18T10:05:53;41.08;;;18.27;;
22606;SDS011;11470;20.968;105.834;2022-12-18T10:11:20;35.08;;;17.38;;
22606;SDS011;11470;20.968;105.834;2022-12-18T10:27:15;43.58;;;22.25;;
22606;SDS011;11470;20.968;105.834;2022-12-18T10:32:24;37.60;;;20.55;;
22606;SDS011;11470;20.968;105.834;2022-12-18T10:37:31;52.17;;;22.33;;
22606;SDS011;11470;20.968;105.834;2022-12-18T10:42:37;52.63;;;23.73;;
22606;SDS011;11470;20.968;105.834;2022-12-18T10:47:47;42.75;;;21.75;;
22606;SDS011;11470;20.968;105.834;2022-12-18T10:53:01;48.40;;;21.63;;
22606;SDS011;11470;20.968;105.834;2022-12-18T10:58:22;47.72;;;20.95;;
22606;SDS011;11470;20.968;105.834;2022-12-18T11:03:32;50.78;;;22.95;;
22606;SDS011;11470;20.968;105.834;2022-12-18T11:08:42;64.90;;;25.83;;
22606;SDS011;11470;20.968;105.834;2022-12-18T11:13:57;53.20;;;26.98;;
22606;SDS011;11470;20.968;105.834;2022-12-18T11:19:13;56.65;;;25.80;;
22606;SDS011;11470;20.968;105.834;2022-12-18T11:29:39;51.65;;;24.60;;
22606;SDS011;11470;20.968;105.834;2022-12-18T11:34:49;57.70;;;25.27;;
22606;SDS011;11470;20.968;105.834;2022-12-18T11:40:10;54.78;;;25.58;;
22606;SDS011;11470;20.968;105.834;2022-12-18T11:45:20;59.78;;;27.10;;
22606;SDS011;11470;20.968;105.834;2022-12-18T11:50:32;69.50;;;26.38;;
22606;SDS011;11470;20.968;105.834;2022-12-18T12:00:51;64.97;;;29.23;;
22606;SDS011;11470;20.968;105.834;2022-12-18T12:11:28;66.68;;;34.85;;
22606;SDS011;11470;20.968;105.834;2022-12-18T12:27:34;73.57;;;31.83;;
22606;SDS011;11470;20.968;105.834;2022-12-18T12:32:50;64.95;;;30.65;;
22606;SDS011;11470;20.968;105.834;2022-12-18T12:38:35;60.70;;;29.73;;
22606;SDS011;11470;20.968;105.834;2022-12-18T12:43:42;73.43;;;35.30;;
22606;SDS011;11470;20.968;105.834;2022-12-18T12:48:53;73.68;;;36.40;;
22606;SDS011;11470;20.968;105.834;2022-12-18T12:54:08;82.40;;;42.63;;
22606;SDS011;11470;20.968;105.834;2022-12-18T12:59:30;87.32;;;43.17;;
22606;SDS011;11470;20.968;105.834;2022-12-18T13:04:42;82.20;;;42.13;;
22606;SDS011;11470;20.968;105.834;2022-12-18T13:15:20;86.82;;;44.90;;
22606;SDS011;11470;20.968;105.834;2022-12-18T13:20:32;87.45;;;44.28;;
22606;SDS011;11470;20.968;105.834;2022-12-18T13:25:39;100.75;;;46.65;;
22606;SDS011;11470;20.968;105.834;2022-12-18T13:30:49;95.22;;;46.00;;
22606;SDS011;11470;20.968;105.834;2022-12-18T13:36:04;85.22;;;42.03;;
22606;SDS011;11470;20.968;105.834;2022-12-18T13:46:27;88.57;;;43.83;;
22606;SDS011;11470;20.968;105.834;2022-12-18T13:51:33;80.35;;;39.03;;
22606;SDS011;11470;20.968;105.834;2022-12-18T13:56:46;75.13;;;36.08;;
22606;SDS011;11470;20.968;105.834;2022-12-18T14:01:55;73.85;;;35.28;;
22606;SDS011;11470;20.968;105.834;2022-12-18T14:07:14;69.82;;;36.22;;
22606;SDS011;11470;20.968;105.834;2022-12-18T14:12:22;68.28;;;34.42;;
22606;SDS011;11470;20.968;105.834;2022-12-18T14:17:49;72.15;;;33.97;;
22606;SDS011;11470;20.968;105.834;2022-12-18T14:22:55;75.50;;;35.85;;
22606;SDS011;11470;20.968;105.834;2022-12-18T14:33:13;65.20;;;33.50;;
22606;SDS011;11470;20.968;105.834;2022-12-18T14:38:23;60.33;;;31.73;;
22606;SDS011;11470;20.968;105.834;2022-12-18T14:43:32;70.45;;;32.97;;
22606;SDS011;11470;20.968;105.834;2022-12-18T14:48:40;68.25;;;31.23;;
22606;SDS011;11470;20.968;105.834;2022-12-18T14:53:47;61.33;;;30.80;;
22606;SDS011;11470;20.968;105.834;2022-12-18T14:59:02;56.83;;;29.67;;
22606;SDS011;11470;20.968;105.834;2022-12-18T15:04:58;65.28;;;31.88;;
22606;SDS011;11470;20.968;105.834;2022-12-18T15:09:39;65.50;;;32.10;;
22606;SDS011;11470;20.968;105.834;2022-12-18T15:14:46;66.65;;;33.97;;
22606;SDS011;11470;20.968;105.834;2022-12-18T15:19:58;89.75;;;39.50;;
22606;SDS011;11470;20.968;105.834;2022-12-18T15:25:24;87.82;;;41.45;;
22606;SDS011;11470;20.968;105.834;2022-12-18T15:30:37;81.30;;;40.00;;
22606;SDS011;11470;20.968;105.834;2022-12-18T15:35:45;85.68;;;41.50;;
22606;SDS011;11470;20.968;105.834;2022-12-18T15:40:58;89.50;;;41.25;;
22606;SDS011;11470;20.968;105.834;2022-12-18T15:46:04;92.77;;;43.67;;
22606;SDS011;11470;20.968;105.834;2022-12-18T15:51:16;83.47;;;43.65;;
22606;SDS011;11470;20.968;105.834;2022-12-18T15:56:24;84.05;;;42.22;;
22606;SDS011;11470;20.968;105.834;2022-12-18T16:01:49;91.72;;;42.80;;
22606;SDS011;11470;20.968;105.834;2022-12-18T16:06:59;88.90;;;43.88;;
22606;SDS011;11470;20.968;105.834;2022-12-18T16:12:19;88.57;;;44.33;;
22606;SDS011;11470;20.968;105.834;2022-12-18T16:17:30;96.03;;;42.80;;
22606;SDS011;11470;20.968;105.834;2022-12-18T16:22:35;108.10;;;46.90;;
22606;SDS011;11470;20.968;105.834;2022-12-18T16:27:44;99.18;;;44.83;;
22606;SDS011;11470;20.968;105.834;2022-12-18T16:32:50;94.78;;;46.40;;
22606;SDS011;11470;20.968;105.834;2022-12-18T16:38:00;89.32;;;43.58;;
22606;SDS011;11470;20.968;105.834;2022-12-18T16:43:08;106.68;;;47.75;;
22606;SDS011;11470;20.968;105.834;2022-12-18T16:48:15;104.13;;;47.15;;
22606;SDS011;11470;20.968;105.834;2022-12-18T16:53:21;99.43;;;47.97;;
22606;SDS011;11470;20.968;105.834;2022-12-18T16:58:35;99.18;;;46.80;;
22606;SDS011;11470;20.968;105.834;2022-12-18T17:04:08;97.50;;;47.63;;
22606;SDS011;11470;20.968;105.834;2022-12-18T17:09:17;100.28;;;48.50;;
22606;SDS011;11470;20.968;105.834;2022-12-18T17:14:36;102.13;;;49.15;;
22606;SDS011;11470;20.968;105.834;2022-12-18T17:19:42;100.57;;;49.72;;
22606;SDS011;11470;20.968;105.834;2022-12-18T17:24:48;101.30;;;49.97;;
22606;SDS011;11470;20.968;105.834;2022-12-18T17:30:04;98.10;;;47.53;;
22606;SDS011;11470;20.968;105.834;2022-12-18T17:35:09;99.90;;;50.30;;
22606;SDS011;11470;20.968;105.834;2022-12-18T17:40:19;115.55;;;52.00;;
22606;SDS011;11470;20.968;105.834;2022-12-18T17:45:24;106.35;;;51.28;;
22606;SDS011;11470;20.968;105.834;2022-12-18T17:50:37;123.40;;;60.58;;
22606;SDS011;11470;20.968;105.834;2022-12-18T17:55:43;115.15;;;58.33;;
22606;SDS011;11470;20.968;105.834;2022-12-18T18:00:48;127.87;;;62.17;;
22606;SDS011;11470;20.968;105.834;2022-12-18T18:05:57;131.27;;;63.70;;
22606;SDS011;11470;20.968;105.834;2022-12-18T18:11:13;127.05;;;64.22;;
22606;SDS011;11470;20.968;105.834;2022-12-18T18:16:43;128.30;;;63.83;;
22606;SDS011;11470;20.968;105.834;2022-12-18T18:21:50;128.70;;;64.72;;
22606;SDS011;11470;20.968;105.834;2022-12-18T18:26:56;142.40;;;70.97;;
22606;SDS011;11470;20.968;105.834;2022-12-18T18:32:06;142.00;;;70.57;;
22606;SDS011;11470;20.968;105.834;2022-12-18T18:42:17;123.65;;;62.03;;
22606;SDS011;11470;20.968;105.834;2022-12-18T18:47:22;112.13;;;56.97;;
22606;SDS011;11470;20.968;105.834;2022-12-18T18:52:28;116.18;;;57.38;;
22606;SDS011;11470;20.968;105.834;2022-12-18T18:57:35;110.28;;;54.63;;
22606;SDS011;11470;20.968;105.834;2022-12-18T19:02:41;102.75;;;54.10;;
22606;SDS011;11470;20.968;105.834;2022-12-18T19:07:46;107.45;;;51.50;;
22606;SDS011;11470;20.968;105.834;2022-12-18T19:12:52;87.25;;;46.13;;
22606;SDS011;11470;20.968;105.834;2022-12-18T19:18:16;95.88;;;47.83;;
22606;SDS011;11470;20.968;105.834;2022-12-18T19:23:21;93.93;;;45.50;;
22606;SDS011;11470;20.968;105.834;2022-12-18T19:28:29;81.03;;;42.58;;
22606;SDS011;11470;20.968;105.834;2022-12-18T19:33:36;94.43;;;45.05;;
22606;SDS011;11470;20.968;105.834;2022-12-18T19:38:45;83.40;;;42.15;;
22606;SDS011;11470;20.968;105.834;2022-12-18T19:43:51;82.57;;;42.78;;
22606;SDS011;11470;20.968;105.834;2022-12-18T19:49:00;76.13;;;41.85;;
22606;SDS011;11470;20.968;105.834;2022-12-18T19:54:05;84.78;;;42.88;;
22606;SDS011;11470;20.968;105.834;2022-12-18T19:59:18;89.47;;;41.75;;
22606;SDS011;11470;20.968;105.834;2022-12-18T20:04:23;94.38;;;42.40;;
22606;SDS011;11470;20.968;105.834;2022-12-18T20:09:29;80.77;;;39.70;;
22606;SDS011;11470;20.968;105.834;2022-12-18T20:14:35;87.73;;;40.40;;
22606;SDS011;11470;20.968;105.834;2022-12-18T20:19:41;87.00;;;41.27;;
22606;SDS011;11470;20.968;105.834;2022-12-18T20:24:50;90.35;;;42.53;;
22606;SDS011;11470;20.968;105.834;2022-12-18T20:29:56;72.77;;;40.00;;
22606;SDS011;11470;20.968;105.834;2022-12-18T20:35:01;90.35;;;43.08;;
22606;SDS011;11470;20.968;105.834;2022-12-18T20:40:08;105.43;;;53.67;;
22606;SDS011;11470;20.968;105.834;2022-12-18T20:45:15;127.55;;;67.03;;
22606;SDS011;11470;20.968;105.834;2022-12-18T20:50:24;112.85;;;53.58;;
22606;SDS011;11470;20.968;105.834;2022-12-18T20:55:29;106.22;;;49.70;;
22606;SDS011;11470;20.968;105.834;2022-12-18T21:00:36;88.80;;;44.80;;
22606;SDS011;11470;20.968;105.834;2022-12-18T21:05:41;94.63;;;44.97;;
22606;SDS011;11470;20.968;105.834;2022-12-18T21:10:46;88.15;;;44.72;;
22606;SDS011;11470;20.968;105.834;2022-12-18T21:15:52;88.70;;;44.65;;
22606;SDS011;11470;20.968;105.834;2022-12-18T21:20:58;84.93;;;41.47;;
22606;SDS011;11470;20.968;105.834;2022-12-18T21:26:17;81.00;;;41.10;;
22606;SDS011;11470;20.968;105.834;2022-12-18T21:31:23;80.72;;;37.45;;
22606;SDS011;11470;20.968;105.834;2022-12-18T21:36:30;80.95;;;42.35;;
22606;SDS011;11470;20.968;105.834;2022-12-18T21:41:36;85.32;;;42.70;;
22606;SDS011;11470;20.968;105.834;2022-12-18T21:47:00;72.97;;;36.95;;
22606;SDS011;11470;20.968;105.834;2022-12-18T21:52:23;78.75;;;39.97;;
22606;SDS011;11470;20.968;105.834;2022-12-18T21:57:34;80.95;;;40.05;;
22606;SDS011;11470;20.968;105.834;2022-12-18T22:02:40;65.25;;;31.42;;
22606;SDS011;11470;20.968;105.834;2022-12-18T22:07:46;76.60;;;37.72;;
22606;SDS011;11470;20.968;105.834;2022-12-18T22:12:52;74.73;;;34.83;;
22606;SDS011;11470;20.968;105.834;2022-12-18T22:17:57;69.80;;;35.07;;
22606;SDS011;11470;20.968;105.834;2022-12-18T22:23:03;85.75;;;36.25;;
22606;SDS011;11470;20.968;105.834;2022-12-18T22:28:09;66.63;;;33.53;;
22606;SDS011;11470;20.968;105.834;2022-12-18T22:33:32;83.97;;;40.17;;
22606;SDS011;11470;20.968;105.834;2022-12-18T22:38:38;78.80;;;36.90;;
22606;SDS011;11470;20.968;105.834;2022-12-18T22:43:44;78.93;;;39.60;;
22606;SDS011;11470;20.968;105.834;2022-12-18T22:48:50;78.37;;;36.00;;
22606;SDS011;11470;20.968;105.834;2022-12-18T22:53:55;76.73;;;36.90;;
22606;SDS011;11470;20.968;105.834;2022-12-18T22:59:01;106.77;;;48.53;;
22606;SDS011;11470;20.968;105.834;2022-12-18T23:04:07;69.65;;;32.35;;
22606;SDS011;11470;20.968;105.834;2022-12-18T23:09:14;77.03;;;36.27;;
22606;SDS011;11470;20.968;105.834;2022-12-18T23:14:20;103.50;;;44.47;;
22606;SDS011;11470;20.968;105.834;2022-12-18T23:19:25;88.32;;;42.47;;
22606;SDS011;11470;20.968;105.834;2022-12-18T23:24:31;117.17;;;53.80;;
22606;SDS011;11470;20.968;105.834;2022-12-18T23:29:38;126.73;;;60.50;;
22606;SDS011;11470;20.968;105.834;2022-12-18T23:34:44;103.97;;;48.40;;
22606;SDS011;11470;20.968;105.834;2022-12-18T23:39:50;114.60;;;51.33;;
22606;SDS011;11470;20.968;105.834;2022-12-18T23:44:55;112.10;;;53.78;;
22606;SDS011;11470;20.968;105.834;2022-12-18T23:50:03;123.03;;;54.70;;
22606;SDS011;11470;20.968;105.834;2022-12-18T23:55:08;120.43;;;51.20;;
